QFA418 YMML-YSSY
Flight info
| Callsign | QFA418 |
|---|---|
| Flight time | 1h 6m |
| Altitude | 37000 |
| Route | ML H129 DOSEL Y59 RIVET |
| Aircraft | B738/M-SDE2E3FGHIRWXY/LB1 |
Departure
| Time | 2026-04-25 19:27 |
|---|---|
| Airport | Melbourne Airport (YMML) |
Arrival
| Time | 2026-04-25 20:33 |
|---|---|
| Airport | Sydney Kingsford Smith International Airport (YSSY) |
| Time | Latitude | Longitude | Altitude | Speed | Heading |
|---|---|---|---|---|---|
| 2026-04-25 18:52 | -37.66621 | 144.84963 | 402 ft | 0 kts | 222° |
| 2026-04-25 19:14 | -37.66602 | 144.84987 | 403 ft | 4 kts | 232° |
| 2026-04-25 19:14 | -37.66587 | 144.85016 | 400 ft | 4 kts | 246° |
| 2026-04-25 19:15 | -37.66580 | 144.85048 | 402 ft | 4 kts | 268° |
| 2026-04-25 19:15 | -37.66581 | 144.85074 | 400 ft | 3 kts | 281° |
| 2026-04-25 19:15 | -37.66585 | 144.85107 | 401 ft | 4 kts | 272° |
| 2026-04-25 19:15 | -37.66585 | 144.85142 | 401 ft | 4 kts | 264° |
| 2026-04-25 19:16 | -37.66582 | 144.85167 | 399 ft | 0 kts | 260° |
| 2026-04-25 19:20 | -37.66582 | 144.85166 | 399 ft | 1 kts | 260° |
| 2026-04-25 19:20 | -37.66586 | 144.85141 | 401 ft | 6 kts | 260° |
| 2026-04-25 19:20 | -37.66581 | 144.85079 | 401 ft | 7 kts | 302° |
| 2026-04-25 19:20 | -37.66541 | 144.85041 | 401 ft | 7 kts | 315° |
| 2026-04-25 19:21 | -37.66532 | 144.84985 | 405 ft | 6 kts | 262° |
| 2026-04-25 19:21 | -37.66546 | 144.84870 | 405 ft | 9 kts | 259° |
| 2026-04-25 19:21 | -37.66591 | 144.84799 | 403 ft | 13 kts | 201° |
| 2026-04-25 19:22 | -37.66643 | 144.84704 | 401 ft | 14 kts | 262° |
| 2026-04-25 19:22 | -37.66657 | 144.84579 | 399 ft | 15 kts | 262° |
| 2026-04-25 19:22 | -37.66687 | 144.84324 | 396 ft | 15 kts | 262° |
| 2026-04-25 19:23 | -37.66702 | 144.84198 | 395 ft | 14 kts | 261° |
| 2026-04-25 19:23 | -37.66763 | 144.83982 | 392 ft | 14 kts | 191° |
| 2026-04-25 19:23 | -37.66871 | 144.83998 | 388 ft | 19 kts | 172° |
| 2026-04-25 19:24 | -37.67030 | 144.84028 | 383 ft | 27 kts | 171° |
| 2026-04-25 19:24 | -37.67229 | 144.84065 | 377 ft | 30 kts | 172° |
| 2026-04-25 19:24 | -37.67611 | 144.84136 | 367 ft | 26 kts | 172° |
| 2026-04-25 19:25 | -37.67849 | 144.84170 | 361 ft | 10 kts | 201° |
| 2026-04-25 19:25 | -37.67876 | 144.84089 | 356 ft | 12 kts | 261° |
| 2026-04-25 19:25 | -37.67874 | 144.83989 | 357 ft | 11 kts | 300° |
| 2026-04-25 19:26 | -37.67806 | 144.83955 | 363 ft | 11 kts | 351° |
| 2026-04-25 19:26 | -37.67707 | 144.83936 | 359 ft | 32 kts | 352° |
| 2026-04-25 19:26 | -37.67229 | 144.83848 | 378 ft | 104 kts | 352° |
| 2026-04-25 19:26 | -37.66329 | 144.83668 | 518 ft | 149 kts | 352° |
| 2026-04-25 19:27 | -37.65323 | 144.83466 | 1284 ft | 150 kts | 352° |
| 2026-04-25 19:27 | -37.64617 | 144.83333 | 1834 ft | 151 kts | 352° |
| 2026-04-25 19:27 | -37.63215 | 144.83054 | 2785 ft | 171 kts | 351° |
| 2026-04-25 19:27 | -37.61958 | 144.82810 | 3184 ft | 193 kts | 350° |
| 2026-04-25 19:28 | -37.60565 | 144.82544 | 3551 ft | 212 kts | 350° |
| 2026-04-25 19:28 | -37.59022 | 144.82512 | 3870 ft | 239 kts | 9° |
| 2026-04-25 19:28 | -37.57381 | 144.83232 | 4508 ft | 256 kts | 20° |
| 2026-04-25 19:28 | -37.55730 | 144.84190 | 5284 ft | 268 kts | 24° |
| 2026-04-25 19:29 | -37.54040 | 144.85267 | 6063 ft | 274 kts | 23° |
| 2026-04-25 19:29 | -37.52322 | 144.86362 | 6925 ft | 280 kts | 23° |
| 2026-04-25 19:29 | -37.50567 | 144.87461 | 7800 ft | 283 kts | 23° |
| 2026-04-25 19:29 | -37.48793 | 144.88555 | 8665 ft | 286 kts | 23° |
| 2026-04-25 19:30 | -37.46992 | 144.89644 | 9554 ft | 288 kts | 24° |
| 2026-04-25 19:30 | -37.45166 | 144.90752 | 10364 ft | 294 kts | 24° |
| 2026-04-25 19:30 | -37.43387 | 144.92146 | 10596 ft | 323 kts | 44° |
| 2026-04-25 19:30 | -37.41953 | 144.94456 | 10848 ft | 347 kts | 52° |
| 2026-04-25 19:31 | -37.40530 | 144.96989 | 11324 ft | 359 kts | 54° |
| 2026-04-25 19:31 | -37.39103 | 144.99586 | 12154 ft | 360 kts | 53° |
| 2026-04-25 19:31 | -37.37670 | 145.02189 | 12970 ft | 363 kts | 52° |
| 2026-04-25 19:31 | -37.36213 | 145.04811 | 13761 ft | 368 kts | 52° |
| 2026-04-25 19:32 | -37.34727 | 145.07463 | 14507 ft | 372 kts | 51° |
| 2026-04-25 19:32 | -37.33244 | 145.10096 | 15295 ft | 375 kts | 51° |
| 2026-04-25 19:32 | -37.31729 | 145.12777 | 16127 ft | 377 kts | 51° |
| 2026-04-25 19:32 | -37.30704 | 145.14586 | 16671 ft | 378 kts | 51° |
| 2026-04-25 19:33 | -37.28665 | 145.18180 | 17710 ft | 383 kts | 51° |
| 2026-04-25 19:33 | -37.27114 | 145.20910 | 18479 ft | 386 kts | 50° |
| 2026-04-25 19:33 | -37.25546 | 145.23667 | 19145 ft | 389 kts | 50° |
| 2026-04-25 19:33 | -37.23971 | 145.26438 | 19797 ft | 393 kts | 50° |
| 2026-04-25 19:34 | -37.22374 | 145.29243 | 20410 ft | 397 kts | 51° |
| 2026-04-25 19:34 | -37.20763 | 145.32073 | 21029 ft | 400 kts | 51° |
| 2026-04-25 19:34 | -37.19135 | 145.34929 | 21665 ft | 403 kts | 51° |
| 2026-04-25 19:34 | -37.17498 | 145.37797 | 22281 ft | 406 kts | 51° |
| 2026-04-25 19:35 | -37.15848 | 145.40684 | 22864 ft | 409 kts | 51° |
| 2026-04-25 19:35 | -37.14182 | 145.43592 | 23455 ft | 413 kts | 51° |
| 2026-04-25 19:35 | -37.12500 | 145.46523 | 23990 ft | 415 kts | 51° |
| 2026-04-25 19:35 | -37.10802 | 145.49478 | 24448 ft | 419 kts | 51° |
| 2026-04-25 19:36 | -37.09092 | 145.52453 | 24869 ft | 423 kts | 51° |
| 2026-04-25 19:36 | -37.07364 | 145.55460 | 25291 ft | 426 kts | 52° |
| 2026-04-25 19:36 | -37.05625 | 145.58483 | 25725 ft | 430 kts | 52° |
| 2026-04-25 19:36 | -37.03889 | 145.61498 | 26133 ft | 433 kts | 52° |
| 2026-04-25 19:37 | -37.02121 | 145.64568 | 26533 ft | 437 kts | 52° |
| 2026-04-25 19:37 | -37.00338 | 145.67660 | 26927 ft | 440 kts | 52° |
| 2026-04-25 19:37 | -36.98537 | 145.70780 | 27311 ft | 444 kts | 52° |
| 2026-04-25 19:37 | -36.96723 | 145.73921 | 27694 ft | 447 kts | 52° |
| 2026-04-25 19:38 | -36.94891 | 145.77088 | 28071 ft | 450 kts | 52° |
| 2026-04-25 19:38 | -36.93047 | 145.80274 | 28410 ft | 454 kts | 53° |
| 2026-04-25 19:38 | -36.91188 | 145.83483 | 28729 ft | 458 kts | 53° |
| 2026-04-25 19:38 | -36.89314 | 145.86715 | 29079 ft | 461 kts | 53° |
| 2026-04-25 19:39 | -36.87447 | 145.89931 | 29397 ft | 464 kts | 52° |
| 2026-04-25 19:39 | -36.85543 | 145.93206 | 29713 ft | 468 kts | 53° |
| 2026-04-25 19:39 | -36.83628 | 145.96500 | 30032 ft | 470 kts | 52° |
| 2026-04-25 19:39 | -36.81691 | 145.99827 | 30373 ft | 472 kts | 53° |
| 2026-04-25 19:40 | -36.79758 | 146.03146 | 30744 ft | 472 kts | 53° |
| 2026-04-25 19:40 | -36.77825 | 146.06460 | 31127 ft | 472 kts | 53° |
| 2026-04-25 19:40 | -36.75898 | 146.09760 | 31557 ft | 470 kts | 52° |
| 2026-04-25 19:40 | -36.73969 | 146.13060 | 31905 ft | 471 kts | 52° |
| 2026-04-25 19:41 | -36.72032 | 146.16370 | 32201 ft | 473 kts | 52° |
| 2026-04-25 19:41 | -36.70094 | 146.19678 | 32577 ft | 472 kts | 52° |
| 2026-04-25 19:41 | -36.68161 | 146.22977 | 33004 ft | 471 kts | 52° |
| 2026-04-25 19:41 | -36.67535 | 146.24043 | 33129 ft | 470 kts | 52° |
| 2026-04-25 19:42 | -36.64294 | 146.29564 | 33731 ft | 471 kts | 52° |
| 2026-04-25 19:42 | -36.62361 | 146.32851 | 34252 ft | 465 kts | 52° |
| 2026-04-25 19:42 | -36.60472 | 146.36064 | 34929 ft | 456 kts | 52° |
| 2026-04-25 19:42 | -36.58620 | 146.39209 | 35174 ft | 458 kts | 52° |
| 2026-04-25 19:43 | -36.56720 | 146.42430 | 35279 ft | 463 kts | 52° |
| 2026-04-25 19:43 | -36.54810 | 146.45664 | 35519 ft | 464 kts | 52° |
| 2026-04-25 19:43 | -36.52901 | 146.48895 | 35919 ft | 461 kts | 52° |
| 2026-04-25 19:43 | -36.51009 | 146.52097 | 36328 ft | 458 kts | 52° |
| 2026-04-25 19:44 | -36.49125 | 146.55281 | 36655 ft | 457 kts | 52° |
| 2026-04-25 19:44 | -36.47234 | 146.58473 | 36818 ft | 460 kts | 52° |
| 2026-04-25 19:44 | -36.45332 | 146.61680 | 37013 ft | 461 kts | 52° |
| 2026-04-25 19:44 | -36.43434 | 146.64877 | 37336 ft | 460 kts | 52° |
| 2026-04-25 19:45 | -36.39612 | 146.71308 | 37316 ft | 463 kts | 52° |
| 2026-04-25 19:45 | -36.35806 | 146.77702 | 37306 ft | 456 kts | 51° |
| 2026-04-25 19:46 | -36.32033 | 146.84027 | 37325 ft | 456 kts | 51° |
| 2026-04-25 19:46 | -36.28272 | 146.90319 | 37316 ft | 457 kts | 51° |
| 2026-04-25 19:47 | -36.24485 | 146.96645 | 37336 ft | 457 kts | 51° |
| 2026-04-25 19:47 | -36.20684 | 147.02987 | 37321 ft | 458 kts | 52° |
| 2026-04-25 19:48 | -36.16879 | 147.09317 | 37334 ft | 458 kts | 51° |
| 2026-04-25 19:48 | -36.13067 | 147.15642 | 37334 ft | 458 kts | 51° |
| 2026-04-25 19:49 | -36.10541 | 147.19828 | 37334 ft | 458 kts | 51° |
| 2026-04-25 19:49 | -36.05462 | 147.28234 | 37336 ft | 457 kts | 51° |
| 2026-04-25 19:50 | -35.99744 | 147.37672 | 37344 ft | 457 kts | 51° |
| 2026-04-25 19:51 | -35.95937 | 147.43944 | 37342 ft | 456 kts | 51° |
| 2026-04-25 19:51 | -35.92125 | 147.50212 | 37353 ft | 456 kts | 51° |
| 2026-04-25 19:52 | -35.88314 | 147.56467 | 37352 ft | 456 kts | 51° |
| 2026-04-25 19:52 | -35.84500 | 147.62718 | 37353 ft | 456 kts | 51° |
| 2026-04-25 19:53 | -35.80704 | 147.68921 | 37355 ft | 455 kts | 51° |
| 2026-04-25 19:53 | -35.76886 | 147.75148 | 37357 ft | 455 kts | 51° |
| 2026-04-25 19:54 | -35.73062 | 147.81377 | 37356 ft | 456 kts | 51° |
| 2026-04-25 19:54 | -35.69232 | 147.87605 | 37362 ft | 456 kts | 51° |
| 2026-04-25 19:55 | -35.65416 | 147.93799 | 37360 ft | 456 kts | 51° |
| 2026-04-25 19:55 | -35.61578 | 148.00019 | 37360 ft | 456 kts | 51° |
| 2026-04-25 19:56 | -35.57733 | 148.06240 | 37366 ft | 457 kts | 51° |
| 2026-04-25 19:56 | -35.53905 | 148.12421 | 37361 ft | 457 kts | 51° |
| 2026-04-25 19:57 | -35.50047 | 148.18641 | 37364 ft | 457 kts | 51° |
| 2026-04-25 19:57 | -35.46192 | 148.24847 | 37369 ft | 457 kts | 51° |
| 2026-04-25 19:58 | -35.42333 | 148.31044 | 37371 ft | 457 kts | 51° |
| 2026-04-25 19:58 | -35.38489 | 148.37201 | 37362 ft | 458 kts | 51° |
| 2026-04-25 19:59 | -35.34611 | 148.43403 | 37357 ft | 458 kts | 51° |
| 2026-04-25 19:59 | -35.30735 | 148.49592 | 37366 ft | 458 kts | 51° |
| 2026-04-25 20:00 | -35.26854 | 148.55781 | 37360 ft | 458 kts | 51° |
| 2026-04-25 20:00 | -35.22972 | 148.61960 | 37372 ft | 458 kts | 51° |
| 2026-04-25 20:01 | -35.17160 | 148.71191 | 37380 ft | 458 kts | 51° |
| 2026-04-25 20:01 | -35.13269 | 148.77357 | 37379 ft | 458 kts | 51° |
| 2026-04-25 20:02 | -35.09375 | 148.83518 | 37384 ft | 458 kts | 51° |
| 2026-04-25 20:02 | -35.05483 | 148.89664 | 37373 ft | 457 kts | 51° |
| 2026-04-25 20:03 | -35.01587 | 148.95805 | 37391 ft | 457 kts | 51° |
| 2026-04-25 20:03 | -34.97677 | 149.01959 | 36925 ft | 462 kts | 51° |
| 2026-04-25 20:04 | -34.96376 | 149.04003 | 36593 ft | 460 kts | 51° |
| 2026-04-25 20:04 | -34.94422 | 149.07072 | 35982 ft | 458 kts | 51° |
| 2026-04-25 20:04 | -34.91834 | 149.11134 | 35152 ft | 457 kts | 52° |
| 2026-04-25 20:04 | -34.89882 | 149.14194 | 34509 ft | 457 kts | 52° |
| 2026-04-25 20:05 | -34.88564 | 149.16259 | 34018 ft | 457 kts | 52° |
| 2026-04-25 20:05 | -34.86621 | 149.19301 | 33468 ft | 453 kts | 52° |
| 2026-04-25 20:05 | -34.84696 | 149.22311 | 32983 ft | 448 kts | 52° |
| 2026-04-25 20:05 | -34.82810 | 149.25260 | 32516 ft | 442 kts | 52° |
| 2026-04-25 20:06 | -34.80927 | 149.28200 | 32057 ft | 437 kts | 51° |
| 2026-04-25 20:06 | -34.79068 | 149.31102 | 31604 ft | 432 kts | 51° |
| 2026-04-25 20:06 | -34.77230 | 149.33969 | 31169 ft | 428 kts | 51° |
| 2026-04-25 20:06 | -34.75409 | 149.36804 | 30735 ft | 423 kts | 51° |
| 2026-04-25 20:07 | -34.73660 | 149.39659 | 30294 ft | 419 kts | 57° |
| 2026-04-25 20:07 | -34.72259 | 149.42708 | 30032 ft | 409 kts | 61° |
| 2026-04-25 20:07 | -34.70954 | 149.45759 | 29603 ft | 404 kts | 62° |
| 2026-04-25 20:07 | -34.69674 | 149.48778 | 29148 ft | 400 kts | 62° |
| 2026-04-25 20:08 | -34.68415 | 149.51732 | 28723 ft | 396 kts | 62° |
| 2026-04-25 20:08 | -34.67145 | 149.54685 | 28285 ft | 393 kts | 62° |
| 2026-04-25 20:08 | -34.65860 | 149.57649 | 27861 ft | 402 kts | 61° |
| 2026-04-25 20:08 | -34.64533 | 149.60692 | 27407 ft | 410 kts | 62° |
| 2026-04-25 20:09 | -34.63203 | 149.63733 | 26935 ft | 405 kts | 61° |
| 2026-04-25 20:09 | -34.61887 | 149.66739 | 26490 ft | 400 kts | 62° |
| 2026-04-25 20:09 | -34.60590 | 149.69698 | 26044 ft | 396 kts | 62° |
| 2026-04-25 20:09 | -34.59299 | 149.72637 | 25614 ft | 391 kts | 62° |
| 2026-04-25 20:10 | -34.58022 | 149.75546 | 25180 ft | 388 kts | 62° |
| 2026-04-25 20:10 | -34.56758 | 149.78420 | 24757 ft | 384 kts | 62° |
| 2026-04-25 20:10 | -34.55507 | 149.81266 | 24334 ft | 381 kts | 62° |
| 2026-04-25 20:10 | -34.54268 | 149.84081 | 23899 ft | 378 kts | 62° |
| 2026-04-25 20:11 | -34.53033 | 149.86885 | 23400 ft | 375 kts | 61° |
| 2026-04-25 20:11 | -34.51808 | 149.89664 | 22946 ft | 371 kts | 62° |
| 2026-04-25 20:11 | -34.50596 | 149.92410 | 22536 ft | 367 kts | 62° |
| 2026-04-25 20:11 | -34.49411 | 149.95091 | 22132 ft | 363 kts | 62° |
| 2026-04-25 20:12 | -34.48224 | 149.97773 | 21747 ft | 359 kts | 62° |
| 2026-04-25 20:12 | -34.47048 | 150.00427 | 21339 ft | 356 kts | 61° |
| 2026-04-25 20:12 | -34.45881 | 150.03062 | 20938 ft | 353 kts | 61° |
| 2026-04-25 20:12 | -34.45114 | 150.04791 | 20679 ft | 351 kts | 61° |
| 2026-04-25 20:13 | -34.43568 | 150.08277 | 20146 ft | 351 kts | 61° |
| 2026-04-25 20:13 | -34.42414 | 150.10877 | 19749 ft | 351 kts | 61° |
| 2026-04-25 20:13 | -34.41245 | 150.13508 | 19350 ft | 358 kts | 61° |
| 2026-04-25 20:13 | -34.40053 | 150.16188 | 18920 ft | 363 kts | 61° |
| 2026-04-25 20:14 | -34.38871 | 150.18846 | 18482 ft | 361 kts | 62° |
| 2026-04-25 20:14 | -34.37686 | 150.21508 | 18018 ft | 357 kts | 62° |
| 2026-04-25 20:14 | -34.36512 | 150.24144 | 17587 ft | 353 kts | 61° |
| 2026-04-25 20:14 | -34.35353 | 150.26743 | 17173 ft | 349 kts | 61° |
| 2026-04-25 20:15 | -34.34200 | 150.29328 | 16768 ft | 346 kts | 62° |
| 2026-04-25 20:15 | -34.33064 | 150.31874 | 16373 ft | 342 kts | 62° |
| 2026-04-25 20:15 | -34.31940 | 150.34389 | 15985 ft | 339 kts | 62° |
| 2026-04-25 20:15 | -34.30820 | 150.36897 | 15596 ft | 336 kts | 62° |
| 2026-04-25 20:16 | -34.29711 | 150.39374 | 15211 ft | 333 kts | 61° |
| 2026-04-25 20:16 | -34.28610 | 150.41833 | 14822 ft | 331 kts | 61° |
| 2026-04-25 20:16 | -34.27530 | 150.44243 | 14430 ft | 329 kts | 61° |
| 2026-04-25 20:16 | -34.26442 | 150.46677 | 14026 ft | 328 kts | 62° |
| 2026-04-25 20:17 | -34.25361 | 150.49094 | 13599 ft | 326 kts | 62° |
| 2026-04-25 20:17 | -34.24286 | 150.51499 | 13215 ft | 323 kts | 62° |
| 2026-04-25 20:17 | -34.23222 | 150.53876 | 12811 ft | 321 kts | 61° |
| 2026-04-25 20:17 | -34.22164 | 150.56238 | 12441 ft | 318 kts | 61° |
| 2026-04-25 20:18 | -34.21116 | 150.58580 | 12067 ft | 316 kts | 61° |
| 2026-04-25 20:18 | -34.20073 | 150.60905 | 11699 ft | 314 kts | 61° |
| 2026-04-25 20:18 | -34.19037 | 150.63214 | 11335 ft | 311 kts | 62° |
| 2026-04-25 20:18 | -34.18001 | 150.65518 | 10908 ft | 312 kts | 62° |
| 2026-04-25 20:19 | -34.16995 | 150.67756 | 10711 ft | 304 kts | 62° |
| 2026-04-25 20:19 | -34.15987 | 150.69996 | 10397 ft | 301 kts | 62° |
| 2026-04-25 20:19 | -34.14997 | 150.72193 | 10221 ft | 293 kts | 62° |
| 2026-04-25 20:19 | -34.14038 | 150.74323 | 10077 ft | 285 kts | 62° |
| 2026-04-25 20:20 | -34.13104 | 150.76398 | 9850 ft | 279 kts | 62° |
| 2026-04-25 20:20 | -34.12178 | 150.78453 | 9566 ft | 277 kts | 61° |
| 2026-04-25 20:20 | -34.11260 | 150.80487 | 9290 ft | 274 kts | 61° |
| 2026-04-25 20:20 | -34.10349 | 150.82504 | 9025 ft | 272 kts | 61° |
| 2026-04-25 20:21 | -34.09450 | 150.84499 | 8801 ft | 271 kts | 61° |
| 2026-04-25 20:21 | -34.08548 | 150.86502 | 8588 ft | 272 kts | 61° |
| 2026-04-25 20:21 | -34.07642 | 150.88518 | 8363 ft | 274 kts | 61° |
| 2026-04-25 20:21 | -34.06730 | 150.90545 | 8143 ft | 275 kts | 61° |
| 2026-04-25 20:22 | -34.05829 | 150.92544 | 7926 ft | 273 kts | 61° |
| 2026-04-25 20:22 | -34.05216 | 150.93904 | 7779 ft | 272 kts | 60° |
| 2026-04-25 20:22 | -34.04018 | 150.96557 | 7491 ft | 271 kts | 60° |
| 2026-04-25 20:22 | -34.03217 | 150.98603 | 7255 ft | 271 kts | 75° |
| 2026-04-25 20:23 | -34.03223 | 151.00842 | 7048 ft | 270 kts | 106° |
| 2026-04-25 20:23 | -34.04084 | 151.02828 | 6846 ft | 268 kts | 129° |
| 2026-04-25 20:23 | -34.05351 | 151.04473 | 6638 ft | 267 kts | 133° |
| 2026-04-25 20:23 | -34.06647 | 151.06078 | 6395 ft | 267 kts | 133° |
| 2026-04-25 20:24 | -34.08033 | 151.07558 | 6160 ft | 268 kts | 150° |
| 2026-04-25 20:24 | -34.09796 | 151.08249 | 5973 ft | 266 kts | 168° |
| 2026-04-25 20:24 | -34.11615 | 151.08704 | 5750 ft | 266 kts | 169° |
| 2026-04-25 20:24 | -34.13426 | 151.09152 | 5535 ft | 266 kts | 169° |
| 2026-04-25 20:25 | -34.15216 | 151.09605 | 5322 ft | 265 kts | 169° |
| 2026-04-25 20:25 | -34.17020 | 151.10068 | 5107 ft | 264 kts | 168° |
| 2026-04-25 20:25 | -34.18815 | 151.10532 | 4883 ft | 264 kts | 169° |
| 2026-04-25 20:25 | -34.20570 | 151.11137 | 4637 ft | 263 kts | 152° |
| 2026-04-25 20:26 | -34.21870 | 151.12643 | 4452 ft | 260 kts | 118° |
| 2026-04-25 20:26 | -34.22368 | 151.14700 | 4258 ft | 255 kts | 89° |
| 2026-04-25 20:26 | -34.22041 | 151.16768 | 4061 ft | 250 kts | 64° |
| 2026-04-25 20:26 | -34.21090 | 151.18499 | 3866 ft | 246 kts | 47° |
| 2026-04-25 20:27 | -34.19948 | 151.20013 | 3676 ft | 242 kts | 45° |
| 2026-04-25 20:27 | -34.18817 | 151.21468 | 3478 ft | 238 kts | 45° |
| 2026-04-25 20:27 | -34.17600 | 151.22782 | 3254 ft | 233 kts | 26° |
| 2026-04-25 20:27 | -34.16047 | 151.23084 | 3102 ft | 226 kts | 353° |
| 2026-04-25 20:28 | -34.14523 | 151.22749 | 3028 ft | 218 kts | 350° |
| 2026-04-25 20:28 | -34.13066 | 151.22397 | 2981 ft | 208 kts | 349° |
| 2026-04-25 20:28 | -34.11674 | 151.22040 | 2990 ft | 198 kts | 349° |
| 2026-04-25 20:28 | -34.10351 | 151.21695 | 2820 ft | 191 kts | 349° |
| 2026-04-25 20:29 | -34.09060 | 151.21359 | 2575 ft | 188 kts | 349° |
| 2026-04-25 20:29 | -34.07793 | 151.21029 | 2341 ft | 184 kts | 349° |
| 2026-04-25 20:29 | -34.06555 | 151.20706 | 2098 ft | 180 kts | 349° |
| 2026-04-25 20:29 | -34.05363 | 151.20396 | 1848 ft | 173 kts | 348° |
| 2026-04-25 20:30 | -34.04230 | 151.20101 | 1632 ft | 160 kts | 348° |
| 2026-04-25 20:30 | -34.03195 | 151.19830 | 1435 ft | 149 kts | 347° |
| 2026-04-25 20:30 | -34.02191 | 151.19560 | 1204 ft | 146 kts | 346° |
| 2026-04-25 20:30 | -34.01206 | 151.19306 | 1019 ft | 143 kts | 347° |
| 2026-04-25 20:31 | -34.00237 | 151.19049 | 844 ft | 142 kts | 345° |
| 2026-04-25 20:31 | -33.99265 | 151.18796 | 640 ft | 143 kts | 347° |
| 2026-04-25 20:31 | -33.98288 | 151.18548 | 455 ft | 143 kts | 346° |
| 2026-04-25 20:31 | -33.97319 | 151.18288 | 263 ft | 141 kts | 347° |
| 2026-04-25 20:32 | -33.96362 | 151.18049 | 76 ft | 140 kts | 346° |
| 2026-04-25 20:32 | -33.95468 | 151.17815 | 28 ft | 121 kts | 348° |
| 2026-04-25 20:32 | -33.94760 | 151.17632 | 28 ft | 86 kts | 348° |
| 2026-04-25 20:32 | -33.94228 | 151.17493 | 29 ft | 72 kts | 348° |
| 2026-04-25 20:33 | -33.93830 | 151.17391 | 27 ft | 35 kts | 348° |
| 2026-04-25 20:33 | -33.93701 | 151.17363 | 29 ft | 14 kts | 5° |
| 2026-04-25 20:33 | -33.93650 | 151.17450 | 29 ft | 11 kts | 79° |
| 2026-04-25 20:33 | -33.93645 | 151.17484 | 27 ft | 4 kts | 79° |
| 2026-04-25 20:34 | -33.93638 | 151.17531 | 28 ft | 5 kts | 85° |
| 2026-04-25 20:34 | -33.93641 | 151.17584 | 28 ft | 8 kts | 89° |
| 2026-04-25 20:34 | -33.93597 | 151.17612 | 29 ft | 9 kts | 350° |
| 2026-04-25 20:34 | -33.93536 | 151.17596 | 29 ft | 9 kts | 349° |
| 2026-04-25 20:35 | -33.93474 | 151.17584 | 29 ft | 9 kts | 355° |
| 2026-04-25 20:35 | -33.93407 | 151.17594 | 29 ft | 11 kts | 360° |
| 2026-04-25 20:35 | -33.93321 | 151.17576 | 29 ft | 14 kts | 348° |
| 2026-04-25 20:35 | -33.93220 | 151.17550 | 29 ft | 15 kts | 348° |
| 2026-04-25 20:36 | -33.93128 | 151.17525 | 29 ft | 12 kts | 347° |
| 2026-04-25 20:36 | -33.93051 | 151.17534 | 29 ft | 11 kts | 27° |
| 2026-04-25 20:36 | -33.93006 | 151.17591 | 29 ft | 9 kts | 89° |
| 2026-04-25 20:36 | -33.93017 | 151.17659 | 29 ft | 7 kts | 106° |
| 2026-04-25 20:37 | -33.93054 | 151.17681 | 29 ft | 6 kts | 189° |
| 2026-04-25 20:37 | -33.93088 | 151.17675 | 29 ft | 3 kts | 188° |
| 2026-04-25 20:37 | -33.93101 | 151.17673 | 29 ft | 1 kts | 188° |